Latest Coastal Weather Observations for Lombadina

IDW60701

Issued at 8:15 am WST Sunday 26 October 2014 (issued every 10 minutes, with the page automatically refreshed every 10 minutes)

About coastal observations | Map of coastal stations | Coastal observations for WA | Marine services | Other Formats
Station Details ID: 503016 Name: LOMBADINA AIRSTRIP Lat: -16.52 Lon: 122.92 Height: 42.0 m
Data from the previous 72 hours. | See also: Recent months for locations in Western Australia
Date/Time
WST
Temp

°C
Wind Pressure Rain
since 9am
mm
Weather Cloud Vis
km
Sea
Height
m
Swell
Dir
 
Speed
knots
Gust
knots
hPa Trend Height
m
Period
s
Dir
26/08:00am 28.7 N 4 8 1014.1 - 0.0 - Partly cloudy 10 - - - -
26/07:30am 28.2 NNW 5 7 1013.9 - 0.0 - Partly cloudy 10 - - - -
26/07:00am 27.8 N 2 5 1013.5 - 0.0 - Partly cloudy 10 - - - -
26/06:30am 27.3 NNE 2 4 1013.4 - 0.0 - - 10 - - - -
26/06:00am 26.2 ENE 1 3 1013.2 - 0.0 - Mostly clear 10 - - - -
26/05:30am 25.3 E 3 4 1013.1 - 0.0 - Partly cloudy 10 - - - -
26/05:00am 25.1 ESE 3 4 1012.8 - 0.0 - Partly cloudy 10 - - - -
26/04:30am 24.8 CALM 0 1 1012.1 - 0.0 - Partly cloudy 10 - - - -
26/04:00am 25.1 CALM 0 2 1011.5 - 0.0 - Partly cloudy 10 - - - -
26/03:30am 26.2 NW 1 3 1011.1 - 0.0 - Partly cloudy 10 - - - -
26/03:00am 26.2 W 4 8 1010.5 - 0.0 - Mostly clear 10 - - - -
26/02:30am 26.3 W 5 8 1010.3 - 0.0 - - 10 - - - -
26/02:00am 26.4 W 7 13 1010.3 - 0.0 - Partly cloudy 10 - - - -
26/01:30am 26.3 W 6 11 1010.5 - 0.0 - Partly cloudy 10 - - - -
26/01:00am 26.4 W 7 12 1010.7 - 0.0 - Partly cloudy 10 - - - -
26/12:30am 26.5 W 8 15 1011.1 - 0.0 - Partly cloudy 10 - - - -
26/12:00am 26.6 W 7 14 1011.6 - 0.0 - Partly cloudy 10 - - - -
 
Date/Time
WST
Temp

°C
Wind Pressure Rain
since 9am
mm
Weather Cloud Vis
km
Sea
Height
m
Swell
Dir
 
Speed
knots
Gust
knots
hPa Trend Height
m
Period
s
Dir
25/11:30pm 26.5 W 7 13 1011.8 - 0.0 - Partly cloudy 10 - - - -
25/11:00pm 26.7 W 7 14 1012.3 - 0.0 - Partly cloudy 10 - - - -
25/10:30pm 26.7 W 7 12 1012.5 - 0.0 - Partly cloudy 10 - - - -
25/10:00pm 26.9 W 7 15 1013.0 - 0.0 - Partly cloudy 10 - - - -
25/09:30pm 26.9 W 7 12 1013.1 - 0.0 - - 10 - - - -
25/09:00pm 27.0 W 7 13 1012.9 - 0.0 - - 10 - - - -
25/08:30pm 27.0 W 7 11 1013.0 - 0.0 - - 10 - - - -
25/08:00pm 27.1 W 6 13 1012.9 - 0.0 - - 10 - - - -
25/07:30pm 27.1 W 7 13 1012.7 - 0.0 - - 10 - - - -
25/07:00pm 27.2 W 8 16 1012.4 - 0.0 - - 10 - - - -
25/06:30pm 27.3 W 8 16 1012.4 - 0.0 - - 10 - - - -
25/06:00pm 27.4 W 7 14 1012.3 - 0.0 - - 10 - - - -
25/05:30pm 27.8 W 8 13 1012.0 - 0.0 - - 10 - - - -
25/05:00pm 28.2 W 8 15 1011.7 - 0.0 - - 10 - - - -
25/04:30pm 28.9 WNW 9 15 1011.5 - 0.0 - Partly cloudy 10 - - - -
25/04:00pm 29.1 WNW 10 16 1011.4 - 0.0 - - 10 - - - -
25/03:30pm 29.7 WNW 10 18 1011.4 - 0.0 - Partly cloudy 10 - - - -
25/03:00pm 29.9 NW 11 17 1011.6 - 0.0 - Partly cloudy 10 - - - -
25/02:30pm 29.7 NW 11 17 1011.8 - 0.0 - Partly cloudy 10 - - - -
25/02:00pm 30.1 NW 11 16 1012.4 - 0.0 - Partly cloudy 10 - - - -
25/01:30pm 29.3 NW 11 16 1012.7 - 0.0 - Partly cloudy 10 - - - -
25/01:00pm 29.2 WNW 9 14 1012.9 - 0.0 - Partly cloudy 10 - - - -
25/12:30pm 29.8 WNW 9 17 1013.2 - 0.0 - - 10 - - - -
25/12:00pm 30.6 WNW 9 15 1013.5 - 0.0 - - 10 - - - -
25/11:30am 29.9 WNW 8 13 1014.2 - 0.0 - - 10 - - - -
25/11:00am 30.4 NW 9 14 1014.5 - 0.0 - Partly cloudy 10 - - - -
25/10:30am 30.0 NW 8 14 1014.8 - 0.0 - Partly cloudy 10 - - - -
25/10:00am 29.8 NW 7 11 1015.2 - 0.0 - Partly cloudy 10 - - - -
25/09:30am 30.2 WNW 5 11 1015.2 - 0.0 - Partly cloudy 10 - - - -
25/09:00am 29.2 WNW 6 10 1015.3 - 0.0 - Mostly cloudy 10 - - - -
25/08:30am 28.8 WNW 6 11 1015.5 - 0.0 - Partly cloudy 10 - - - -
25/08:00am 28.8 NW 7 9 1015.4 - 0.0 - Partly cloudy 10 - - - -
25/07:30am 28.4 NW 6 10 1015.1 - 0.0 - Partly cloudy 10 - - - -
25/07:00am 28.2 WNW 4 7 1014.8 - 0.0 - Partly cloudy 10 - - - -
25/06:30am 27.7 W 4 8 1014.5 - 0.0 - Partly cloudy 10 - - - -
25/06:00am 27.0 WNW 4 8 1014.1 - 0.0 - Partly cloudy 10 - - - -
25/05:30am 26.5 NW 5 9 1013.4 - 0.0 - Partly cloudy 10 - - - -
25/05:00am 26.4 NW 5 8 1013.0 - 0.0 - Partly cloudy 10 - - - -
25/04:30am 26.3 NW 3 6 1012.9 - 0.0 - Partly cloudy 10 - - - -
25/04:00am 26.3 WNW 3 8 1012.7 - 0.0 - Partly cloudy 10 - - - -
25/03:30am 26.2 WNW 3 6 1012.2 - 0.0 - Partly cloudy 10 - - - -
25/03:00am 25.9 WNW 3 5 1012.3 - 0.0 - Partly cloudy 10 - - - -
25/02:30am 25.8 W 2 3 1012.2 - 0.0 - Partly cloudy 10 - - - -
25/02:00am 26.1 SW 3 5 1012.3 - 0.0 - Partly cloudy 10 - - - -
25/01:30am 26.5 WNW 5 12 1011.3 - 0.0 - Partly cloudy 10 - - - -
25/01:00am 26.5 WNW 5 10 1011.7 - 0.0 - Partly cloudy 10 - - - -
25/12:30am 26.4 WNW 5 10 1011.8 - 0.0 - Partly cloudy 10 - - - -
25/12:00am 26.5 WNW 6 13 1012.1 - 0.0 - Partly cloudy 10 - - - -
 
Date/Time
WST
Temp

°C
Wind Pressure Rain
since 9am
mm
Weather Cloud Vis
km
Sea
Height
m
Swell
Dir
 
Speed
knots
Gust
knots
hPa Trend Height
m
Period
s
Dir
24/11:30pm 26.6 WNW 6 10 1012.3 - 0.0 - Partly cloudy 10 - - - -
24/11:00pm 26.7 WNW 6 13 1012.4 - 0.0 - Partly cloudy 10 - - - -
24/10:30pm 26.7 WNW 5 11 1012.6 - 0.0 - Partly cloudy 10 - - - -
24/10:00pm 26.8 WNW 6 11 1012.7 - 0.0 - Partly cloudy 10 - - - -
24/09:30pm 26.7 WNW 5 9 1012.6 - 0.0 - Partly cloudy 10 - - - -
24/09:00pm 26.8 W 5 11 1012.5 - 0.0 - Partly cloudy 10 - - - -
24/08:30pm 26.8 WNW 5 10 1012.4 - 0.0 - Partly cloudy 10 - - - -
24/08:00pm 26.8 W 5 11 1012.1 - 0.0 - Partly cloudy 10 - - - -
24/07:30pm 26.7 W 6 11 1011.8 - 0.0 - Partly cloudy 10 - - - -
24/07:00pm 27.0 WNW 5 9 1011.8 - 0.0 - Partly cloudy 10 - - - -
24/06:30pm 27.1 WNW 4 9 1011.4 - 0.0 - - 10 - - - -
24/06:00pm 27.3 W 5 9 1011.3 - 0.0 - - 10 - - - -
24/05:30pm 27.7 W 6 10 1010.8 - 0.0 - - 10 - - - -
24/05:00pm 28.1 W 6 10 1010.6 - 0.0 - - 10 - - - -
24/04:30pm 28.6 W 8 12 1010.4 - 0.0 - - 10 - - - -
24/04:00pm 28.9 W 8 13 1010.5 - 0.0 - - 10 - - - -
24/03:30pm 29.3 WNW 7 12 1010.7 - 0.0 - - 10 - - - -
24/03:00pm 29.4 NW 9 14 1010.8 - 0.0 - - 10 - - - -
24/02:30pm 29.7 NW 8 13 1011.1 - 0.0 - - 10 - - - -
24/02:00pm 30.5 NW 8 12 1011.3 - 0.0 - - 10 - - - -
24/01:30pm 29.2 NW 8 14 1011.8 - 0.0 - - 10 - - - -
24/01:00pm 30.3 NW 8 14 1012.0 - 0.0 - - 10 - - - -
24/12:30pm 29.7 NW 7 13 1012.4 - 0.0 - - 10 - - - -
24/12:00pm 29.7 NNW 7 11 1012.8 - 0.0 - - 10 - - - -
24/11:30am 30.4 NW 8 13 1012.7 - 0.0 - - 10 - - - -
24/11:00am 30.3 NW 8 13 1012.8 - 0.0 - - 10 - - - -
24/10:30am 30.0 WNW 5 10 1013.2 - 0.0 - - 10 - - - -
24/10:00am 30.4 WNW 5 8 1013.7 - 0.0 - Partly cloudy 10 - - - -
24/09:30am 29.1 WNW 4 9 1014.1 - 0.0 - Partly cloudy 10 - - - -
24/09:00am 28.2 NW 4 7 1014.2 - - - Cloudy 10 - - - -
24/08:30am 28.1 WNW 6 10 1013.8 - - - Partly cloudy 10 - - - -
24/08:00am 28.5 NW 7 12 1013.4 - - - Partly cloudy 10 - - - -
24/07:30am 28.2 NW 7 11 1013.4 - - - Partly cloudy 10 - - - -
24/07:00am 27.7 NNW 5 8 1013.2 - - - Partly cloudy 10 - - - -
24/06:30am 26.9 N 3 5 1013.0 - - - Partly cloudy 10 - - - -
24/06:00am 26.6 NNW 4 6 1012.6 - - - Mostly cloudy 10 - - - -
24/05:30am 26.4 NNW 4 7 1012.1 - - - Partly cloudy 10 - - - -
24/05:00am 26.3 NNW 5 8 1011.6 - - - Partly cloudy 10 - - - -
24/04:30am 26.4 NNW 5 9 1011.4 - - - Partly cloudy 10 - - - -
24/04:00am 26.4 NW 7 11 1010.9 - - - Partly cloudy 10 - - - -
24/03:30am 26.3 NW 7 11 1010.5 - - - Partly cloudy 10 - - - -
24/03:00am 26.1 NW 7 12 1010.4 - 0.0 - Partly cloudy 10 - - - -
24/02:30am 26.0 NW 5 11 1010.5 - - - Partly cloudy 10 - - - -
24/02:00am 25.8 NW 6 9 1010.6 - - - Partly cloudy 10 - - - -
24/01:30am 24.7 NNW 2 4 1011.2 - - - Partly cloudy 10 - - - -
24/01:14am 24.3 N 1 2 1011.4 - - - Partly cloudy 10 - - - -
24/01:01am 25.0 N 2 3 1011.5 - - - Partly cloudy 10 - - - -
24/01:00am 25.0 N 2 3 1011.6 - - - Partly cloudy 10 - - - -
24/12:30am 25.1 N 2 3 1011.8 - - - Partly cloudy 10 - - - -
24/12:29am 25.1 N 2 4 1011.8 - - - Partly cloudy 10 - - - -
24/12:15am 25.1 NNW 3 4 1011.8 - - - Partly cloudy 10 - - - -
24/12:00am 25.1 NNW 2 4 1012.1 - - - Mostly clear 10 - - - -
 
Date/Time
WST
Temp

°C
Wind Pressure Rain
since 9am
mm
Weather Cloud Vis
km
Sea
Height
m
Swell
Dir
 
Speed
knots
Gust
knots
hPa Trend Height
m
Period
s
Dir
23/11:30pm 24.8 N 2 4 1012.3 - - - - 10 - - - -
23/11:00pm 24.1 NE 2 4 1012.7 - - - - 10 - - - -
23/10:30pm 24.7 NNE 3 4 1012.9 - - - - 10 - - - -
23/10:00pm 24.5 CALM 0 1 1013.2 - - - - 10 - - - -
23/09:30pm 25.0 E 3 4 1013.7 - - - Partly cloudy 10 - - - -
23/09:00pm 26.4 NW 4 7 1013.0 - 0.0 - - 10 - - - -
23/08:30pm 25.8 N 2 4 1013.1 - - - - 10 - - - -
23/08:00pm 25.6 W 1 4 1012.5 - - - - 10 - - - -
23/07:30pm 26.6 NNW 4 6 1012.6 - - - - 10 - - - -
23/07:00pm 26.6 NNW 4 8 1011.9 - - - - 10 - - - -
23/06:30pm 26.6 N 4 7 1011.8 - - - - 10 - - - -
23/06:00pm 27.1 NNW 6 9 1011.5 - - - - 10 - - - -
23/05:30pm 27.4 NNW 8 12 1010.9 - - - - 10 - - - -
23/05:00pm 28.1 NW 8 14 1010.5 - - - - 10 - - - -
23/04:30pm 28.7 NW 10 15 1010.1 - - - - 10 - - - -
23/04:00pm 29.0 NW 9 13 1010.2 - - - - 10 - - - -
23/03:30pm 29.6 NW 8 12 1010.4 - - - - 10 - - - -
23/03:00pm 29.3 NW 8 14 1010.7 - - - - 10 - - - -
23/02:30pm 30.1 NW 9 14 1010.9 - - - - 10 - - - -
23/02:00pm 29.7 NW 8 14 1011.1 - - - Partly cloudy 10 - - - -
23/01:30pm 29.5 NW 9 14 1011.4 - - - Partly cloudy 10 - - - -
23/01:00pm 30.1 NW 9 15 1011.6 - - - Partly cloudy 10 - - - -
23/12:30pm 29.9 NW 9 14 1012.0 - - - Partly cloudy 10 - - - -
23/12:00pm 30.1 NW 8 13 1012.3 - - - - 10 - - - -
23/11:00am 30.7 WNW 8 12 1012.8 - - - - 10 - - - -
23/10:30am 30.0 NW 8 13 1012.9 - - - Partly cloudy 10 - - - -
23/10:00am 30.3 NW 7 12 1013.0 - - - Partly cloudy 10 - - - -
23/09:00am 29.4 NW 7 11 1013.3 - 0.0 - - 10 - - - -
23/08:30am 28.9 NNW 7 11 1013.4 - 0.0 - Partly cloudy 10 - - - -

Other Formats:

Comma delimited format used in spreadsheet applications
http://www.bom.gov.au/fwo/IDW60701/IDW60701.99206.axf

JavaScript Object Notation format (JSON) in row-major order
http://www.bom.gov.au/fwo/IDW60701/IDW60701.99206.json